createdAt,value
2019-03-03T00:00:23.302Z,8.94
2019-03-03T00:01:23.310Z,8.95
2019-03-03T00:02:23.272Z,8.99
2019-03-03T00:03:23.272Z,8.91
2019-03-03T00:04:23.258Z,8.98
2019-03-03T00:05:23.243Z,9.05
2019-03-03T00:06:23.249Z,8.99
2019-03-03T00:07:23.246Z,9.10
2019-03-03T00:08:24.701Z,9.15
2019-03-03T00:09:23.205Z,9.13
2019-03-03T00:10:23.187Z,9.15
2019-03-03T00:11:23.179Z,9.14
2019-03-03T00:12:23.187Z,9.10
2019-03-03T00:13:23.159Z,9.13
2019-03-03T00:14:23.161Z,9.20
2019-03-03T00:15:23.146Z,9.20
2019-03-03T00:16:23.129Z,9.08
2019-03-03T00:17:23.110Z,9.23
2019-03-03T00:18:23.119Z,9.15
2019-03-03T00:19:23.095Z,9.20
2019-03-03T00:20:23.084Z,9.29
2019-03-03T00:21:23.080Z,9.23
2019-03-03T00:22:23.070Z,9.29
2019-03-03T00:23:23.059Z,9.28
2019-03-03T00:24:23.038Z,9.29
2019-03-03T00:25:23.024Z,9.23
2019-03-03T00:26:23.022Z,9.32
2019-03-03T00:27:23.012Z,9.28
2019-03-03T00:28:23.010Z,9.26
2019-03-03T00:29:22.989Z,9.26
2019-03-03T00:30:22.972Z,9.32
2019-03-03T00:31:22.963Z,9.32
2019-03-03T00:32:22.955Z,9.24
2019-03-03T00:33:22.965Z,9.29
2019-03-03T00:34:22.926Z,9.26
2019-03-03T00:35:22.922Z,9.32
2019-03-03T00:36:22.914Z,9.26
2019-03-03T00:37:22.897Z,9.32
2019-03-03T00:38:22.899Z,9.33
2019-03-03T00:39:22.892Z,9.35
2019-03-03T00:40:22.873Z,9.31
2019-03-03T00:41:22.858Z,9.35
2019-03-03T00:42:22.839Z,9.31
2019-03-03T00:43:22.835Z,9.32
2019-03-03T00:44:22.835Z,9.35
2019-03-03T00:45:22.811Z,9.26
2019-03-03T00:46:22.805Z,9.28
2019-03-03T00:47:22.789Z,9.31
2019-03-03T00:48:22.800Z,9.28
2019-03-03T00:49:22.766Z,9.21
2019-03-03T00:50:22.792Z,9.11
2019-03-03T00:51:22.749Z,9.23
2019-03-03T00:52:22.739Z,9.05
2019-03-03T00:53:22.736Z,9.13
2019-03-03T00:54:22.709Z,9.05
2019-03-03T00:55:22.701Z,9.15
2019-03-03T00:56:22.700Z,9.04
2019-03-03T00:57:22.678Z,9.10
2019-03-03T00:58:22.676Z,9.10
2019-03-03T00:59:22.661Z,9.08
2019-03-03T01:00:22.667Z,9.04
2019-03-03T01:01:22.647Z,9.08
2019-03-03T01:02:22.626Z,8.99
2019-03-03T01:03:22.612Z,9.04
2019-03-03T01:04:22.604Z,8.91
2019-03-03T01:05:22.597Z,8.99
2019-03-03T01:06:22.590Z,8.92
2019-03-03T01:07:22.570Z,8.95
2019-03-03T01:08:22.558Z,8.91
2019-03-03T01:09:22.545Z,8.87
2019-03-03T01:10:22.542Z,8.84
2019-03-03T01:11:22.547Z,8.77
2019-03-03T01:12:22.530Z,8.81
2019-03-03T01:13:22.516Z,8.84
2019-03-03T01:14:22.521Z,8.79
2019-03-03T01:15:22.486Z,8.77
2019-03-03T01:16:22.521Z,8.80
2019-03-03T01:17:22.470Z,8.79
2019-03-03T01:18:22.458Z,8.79
2019-03-03T01:19:22.443Z,8.80
2019-03-03T01:20:22.434Z,8.76
2019-03-03T01:21:22.415Z,8.74
2019-03-03T01:22:22.425Z,8.77
2019-03-03T01:23:22.400Z,8.71
2019-03-03T01:24:22.393Z,8.74
2019-03-03T01:25:22.381Z,8.68
2019-03-03T01:26:22.361Z,8.70
2019-03-03T01:27:22.371Z,8.63
2019-03-03T01:28:22.363Z,8.66
2019-03-03T01:29:22.333Z,8.63
2019-03-03T01:30:22.331Z,8.62
2019-03-03T01:31:22.313Z,8.77
2019-03-03T01:32:22.302Z,8.59
2019-03-03T01:33:22.305Z,8.61
2019-03-03T01:34:22.291Z,8.68
2019-03-03T01:35:22.270Z,8.70
2019-03-03T01:36:22.265Z,8.65
2019-03-03T01:37:22.258Z,8.66
2019-03-03T01:38:22.246Z,8.53
2019-03-03T01:39:22.229Z,8.65
2019-03-03T01:40:22.218Z,8.58
2019-03-03T01:41:22.201Z,8.55
2019-03-03T01:42:22.221Z,8.61
2019-03-03T01:43:22.199Z,8.55
2019-03-03T01:44:22.172Z,8.59
2019-03-03T01:45:22.165Z,8.55
2019-03-03T01:46:22.145Z,8.59
2019-03-03T01:47:22.143Z,8.52
2019-03-03T01:48:22.147Z,8.47
2019-03-03T01:49:22.113Z,8.41
2019-03-03T01:50:22.114Z,8.33
2019-03-03T01:51:22.097Z,8.38
2019-03-03T01:52:22.083Z,8.45
2019-03-03T01:53:22.083Z,8.48
2019-03-03T01:54:22.085Z,8.33
2019-03-03T01:55:22.056Z,8.37
2019-03-03T01:56:22.041Z,8.34
2019-03-03T01:57:22.040Z,8.29
2019-03-03T01:58:22.027Z,8.22
2019-03-03T01:59:22.027Z,8.20
2019-03-03T02:00:22.004Z,8.18
2019-03-03T02:01:21.981Z,8.07
2019-03-03T02:02:21.984Z,8.08
2019-03-03T02:03:21.979Z,8.07
2019-03-03T02:04:21.968Z,8.18
2019-03-03T02:05:21.948Z,8.23
2019-03-03T02:06:21.929Z,8.22
2019-03-03T02:07:21.920Z,8.25
2019-03-03T02:08:21.927Z,8.29
2019-03-03T02:09:21.903Z,8.23
2019-03-03T02:10:21.899Z,8.08
2019-03-03T02:11:21.876Z,8.26
2019-03-03T02:12:21.866Z,8.10
2019-03-03T02:13:21.864Z,8.18
2019-03-03T02:14:21.864Z,8.11
2019-03-03T02:15:21.839Z,8.20
2019-03-03T02:16:21.834Z,8.26
2019-03-03T02:17:21.820Z,8.20
2019-03-03T02:18:21.814Z,8.26
2019-03-03T02:19:21.791Z,8.23
2019-03-03T02:20:21.792Z,8.29
2019-03-03T02:21:21.766Z,8.33
2019-03-03T02:22:21.780Z,8.36
2019-03-03T02:23:21.767Z,8.38
2019-03-03T02:24:21.734Z,8.44
2019-03-03T02:25:21.726Z,8.48
2019-03-03T02:26:21.721Z,8.44
2019-03-03T02:27:21.710Z,8.48
2019-03-03T02:28:21.739Z,8.48
2019-03-03T02:29:21.700Z,8.52
2019-03-03T02:30:21.668Z,8.65
2019-03-03T02:31:21.672Z,8.71
2019-03-03T02:32:21.646Z,8.76
2019-03-03T02:33:21.645Z,8.79
2019-03-03T02:34:21.630Z,8.76
2019-03-03T02:35:21.630Z,8.77
2019-03-03T02:36:21.624Z,8.83
2019-03-03T02:37:21.604Z,8.84
2019-03-03T02:38:21.588Z,8.92
2019-03-03T02:39:21.592Z,8.83
2019-03-03T02:40:21.568Z,8.96
2019-03-03T02:41:21.558Z,8.96
2019-03-03T02:42:21.541Z,8.91
2019-03-03T02:43:21.532Z,8.95
2019-03-03T02:44:21.528Z,8.99
2019-03-03T02:45:21.510Z,8.94
2019-03-03T02:46:21.499Z,8.91
2019-03-03T02:47:21.511Z,8.94
2019-03-03T02:48:21.485Z,8.99
2019-03-03T02:49:21.469Z,9.02
2019-03-03T02:50:21.457Z,9.01
2019-03-03T02:51:21.440Z,9.02
2019-03-03T02:52:21.431Z,9.04
2019-03-03T02:53:21.437Z,9.08
2019-03-03T02:54:21.415Z,9.05
2019-03-03T02:55:21.407Z,9.10
2019-03-03T02:56:21.407Z,9.05
2019-03-03T02:57:21.388Z,9.05
2019-03-03T02:58:21.381Z,9.08
2019-03-03T02:59:21.373Z,9.10
2019-03-03T03:00:21.356Z,9.24
2019-03-03T03:01:21.340Z,9.17
2019-03-03T03:02:21.323Z,9.15
2019-03-03T03:03:21.333Z,9.21
2019-03-03T03:04:21.318Z,9.21
2019-03-03T03:05:21.293Z,9.28
2019-03-03T03:06:21.284Z,9.18
2019-03-03T03:07:21.275Z,9.28
2019-03-03T03:08:21.298Z,9.21
2019-03-03T03:09:21.254Z,9.29
2019-03-03T03:10:21.241Z,9.24
2019-03-03T03:11:21.223Z,9.23
2019-03-03T03:12:21.221Z,9.28
2019-03-03T03:13:21.216Z,9.23
2019-03-03T03:14:21.223Z,9.33
2019-03-03T03:15:21.182Z,9.18
2019-03-03T03:16:21.172Z,9.33
2019-03-03T03:17:21.163Z,9.35
2019-03-03T03:18:21.153Z,9.29
2019-03-03T03:19:21.171Z,9.39
2019-03-03T03:20:21.140Z,9.32
2019-03-03T03:21:21.120Z,9.40
2019-03-03T03:22:21.119Z,9.36
2019-03-03T03:23:21.097Z,9.36
2019-03-03T03:24:21.095Z,9.33
2019-03-03T03:25:21.075Z,9.43
2019-03-03T03:26:21.067Z,9.38
2019-03-03T03:27:21.062Z,9.38
2019-03-03T03:28:21.037Z,9.38
2019-03-03T03:29:21.041Z,9.36
2019-03-03T03:30:21.035Z,9.48
2019-03-03T03:31:21.017Z,9.39
2019-03-03T03:32:21.004Z,9.48
2019-03-03T03:33:21.013Z,9.39
2019-03-03T03:34:20.976Z,9.48
2019-03-03T03:35:20.984Z,9.46
2019-03-03T03:36:20.956Z,9.42
2019-03-03T03:37:20.951Z,9.50
2019-03-03T03:38:20.951Z,9.48
2019-03-03T03:39:20.928Z,9.47
2019-03-03T03:40:21.026Z,9.54
2019-03-03T03:41:20.905Z,9.47
2019-03-03T03:42:20.887Z,9.43
2019-03-03T03:43:20.898Z,9.40
2019-03-03T03:44:20.872Z,9.48
2019-03-03T03:45:20.925Z,9.47
2019-03-03T03:46:20.844Z,9.51
2019-03-03T03:47:20.837Z,9.36
2019-03-03T03:48:20.830Z,9.38
2019-03-03T03:49:20.811Z,9.50
2019-03-03T03:50:20.817Z,9.50
2019-03-03T03:51:20.796Z,9.39
2019-03-03T03:52:20.826Z,9.53
2019-03-03T03:53:20.772Z,9.42
2019-03-03T03:54:20.765Z,9.51
2019-03-03T03:55:20.753Z,9.51
2019-03-03T03:56:20.745Z,9.51
2019-03-03T03:57:20.726Z,9.47
2019-03-03T03:58:20.718Z,9.46
2019-03-03T03:59:20.711Z,9.54
2019-03-03T04:00:20.701Z,9.47
2019-03-03T04:01:20.692Z,9.48
2019-03-03T04:02:20.673Z,9.56
2019-03-03T04:03:20.664Z,9.46
2019-03-03T04:04:20.657Z,9.47
2019-03-03T04:05:20.649Z,9.57
2019-03-03T04:06:20.645Z,9.48
2019-03-03T04:07:20.612Z,9.57
2019-03-03T04:08:20.604Z,9.57
2019-03-03T04:09:20.591Z,9.50
2019-03-03T04:10:20.590Z,9.50
2019-03-03T04:11:20.578Z,9.64
2019-03-03T04:12:20.577Z,9.51
2019-03-03T04:13:20.551Z,9.57
2019-03-03T04:14:20.545Z,9.48
2019-03-03T04:15:20.527Z,9.50
2019-03-03T04:16:20.524Z,9.61
2019-03-03T04:17:20.606Z,9.61
2019-03-03T04:18:20.507Z,9.68
2019-03-03T04:19:20.481Z,9.66
2019-03-03T04:20:20.472Z,9.58
2019-03-03T04:21:20.463Z,9.72
2019-03-03T04:22:20.452Z,9.64
2019-03-03T04:23:20.461Z,9.66
2019-03-03T04:24:20.435Z,9.58
2019-03-03T04:25:20.419Z,9.60
2019-03-03T04:26:20.410Z,9.65
2019-03-03T04:27:20.407Z,9.75
2019-03-03T04:28:20.390Z,9.65
2019-03-03T04:29:20.374Z,9.68
2019-03-03T04:30:20.364Z,9.64
2019-03-03T04:31:20.360Z,9.71
2019-03-03T04:32:20.339Z,9.65
2019-03-03T04:33:20.350Z,9.71
2019-03-03T04:34:20.322Z,9.74
2019-03-03T04:35:20.312Z,9.65
2019-03-03T04:36:20.306Z,9.65
2019-03-03T04:37:20.291Z,9.57
2019-03-03T04:38:20.275Z,9.72
2019-03-03T04:39:20.273Z,9.64
2019-03-03T04:40:20.250Z,9.76
2019-03-03T04:41:20.241Z,9.68
2019-03-03T04:42:20.233Z,9.75
2019-03-03T04:43:20.224Z,9.78
2019-03-03T04:44:20.234Z,9.65
2019-03-03T04:45:20.202Z,9.74
2019-03-03T04:46:20.189Z,9.74
2019-03-03T04:47:20.173Z,9.76
2019-03-03T04:48:20.170Z,9.72
2019-03-03T04:49:20.157Z,9.76
2019-03-03T04:50:20.161Z,9.75
2019-03-03T04:51:20.127Z,9.71
2019-03-03T04:52:20.117Z,9.71
2019-03-03T04:53:20.113Z,9.71
2019-03-03T04:54:20.100Z,9.72
2019-03-03T04:55:20.103Z,9.72
2019-03-03T04:56:20.082Z,9.71
2019-03-03T04:57:20.066Z,9.74
2019-03-03T04:58:20.063Z,9.69
2019-03-03T04:59:20.044Z,9.65
2019-03-03T05:00:20.045Z,9.72
2019-03-03T05:01:20.027Z,9.79
2019-03-03T05:02:20.013Z,9.72
2019-03-03T05:03:20.005Z,9.75
2019-03-03T05:04:19.985Z,9.71
2019-03-03T05:05:19.977Z,9.72
2019-03-03T05:06:19.981Z,9.75
2019-03-03T05:07:19.965Z,9.76
2019-03-03T05:08:19.950Z,9.76
2019-03-03T05:09:19.941Z,9.66
2019-03-03T05:10:19.922Z,9.69
2019-03-03T05:11:19.926Z,9.79
2019-03-03T05:12:19.902Z,9.81
2019-03-03T05:13:19.890Z,9.86
2019-03-03T05:14:19.885Z,9.83
2019-03-03T05:15:19.876Z,9.87
2019-03-03T05:16:19.884Z,9.83
2019-03-03T05:17:19.852Z,9.87
2019-03-03T05:18:19.836Z,9.84
2019-03-03T05:19:19.821Z,9.81
2019-03-03T05:20:19.822Z,9.91
2019-03-03T05:21:19.806Z,9.84
2019-03-03T05:22:19.803Z,9.84
2019-03-03T05:23:19.784Z,9.81
2019-03-03T05:24:19.772Z,9.89
2019-03-03T05:25:19.760Z,9.87
2019-03-03T05:26:19.750Z,9.84
2019-03-03T05:27:19.762Z,9.90
2019-03-03T05:28:19.729Z,9.81
2019-03-03T05:29:19.718Z,9.87
2019-03-03T05:30:19.703Z,9.84
2019-03-03T05:31:19.692Z,9.79
2019-03-03T05:32:19.695Z,9.89
2019-03-03T05:33:19.683Z,9.87
2019-03-03T05:34:19.662Z,9.83
2019-03-03T05:35:19.657Z,9.78
2019-03-03T05:36:19.642Z,9.76
2019-03-03T05:37:19.630Z,9.86
2019-03-03T05:38:19.631Z,9.83
2019-03-03T05:39:19.610Z,9.86
2019-03-03T05:40:19.603Z,9.84
2019-03-03T05:41:19.587Z,9.86
2019-03-03T05:42:19.576Z,9.84
2019-03-03T05:43:19.570Z,9.90
2019-03-03T05:44:19.548Z,9.89
2019-03-03T05:45:19.542Z,9.86
2019-03-03T05:46:19.543Z,9.87
2019-03-03T05:47:19.526Z,9.89
2019-03-03T05:48:19.524Z,9.93
2019-03-03T05:49:19.497Z,9.93
2019-03-03T05:50:19.486Z,9.93
2019-03-03T05:51:19.476Z,9.78
2019-03-03T05:52:19.500Z,9.87
2019-03-03T05:53:19.476Z,9.87
2019-03-03T05:54:19.471Z,9.87
2019-03-03T05:55:19.434Z,9.84
2019-03-03T05:56:19.459Z,9.90
2019-03-03T05:57:19.409Z,9.86
2019-03-03T05:58:19.404Z,9.89
2019-03-03T05:59:19.396Z,9.87
2019-03-03T06:00:19.383Z,9.87
2019-03-03T06:01:19.367Z,9.84
2019-03-03T06:02:19.370Z,9.90
2019-03-03T06:03:19.342Z,9.84
2019-03-03T06:04:19.341Z,9.86
2019-03-03T06:05:19.323Z,9.91
2019-03-03T06:06:19.325Z,9.89
2019-03-03T06:07:19.305Z,9.84
2019-03-03T06:08:19.285Z,9.86
2019-03-03T06:09:19.278Z,9.89
2019-03-03T06:10:19.276Z,9.86
2019-03-03T06:11:19.273Z,9.90
2019-03-03T06:12:19.252Z,9.89
2019-03-03T06:13:19.240Z,9.86
2019-03-03T06:14:19.242Z,9.89
2019-03-03T06:15:19.214Z,9.89
2019-03-03T06:16:19.214Z,9.84
2019-03-03T06:17:19.191Z,9.86
2019-03-03T06:18:19.189Z,9.84
2019-03-03T06:19:19.175Z,9.84
2019-03-03T06:20:19.175Z,9.84
2019-03-03T06:21:19.151Z,9.83
2019-03-03T06:22:19.138Z,9.89
2019-03-03T06:23:19.125Z,9.91
2019-03-03T06:24:19.124Z,9.89
2019-03-03T06:25:19.119Z,9.90
2019-03-03T06:26:19.095Z,9.86
2019-03-03T06:27:19.078Z,9.99
2019-03-03T06:28:19.068Z,9.90
2019-03-03T06:29:19.063Z,9.86
2019-03-03T06:30:19.078Z,9.84
2019-03-03T06:31:19.046Z,9.91
2019-03-03T06:32:19.037Z,9.86
2019-03-03T06:33:19.022Z,9.97
2019-03-03T06:34:19.006Z,9.96
2019-03-03T06:35:19.010Z,9.93
2019-03-03T06:36:18.981Z,10.01
2019-03-03T06:37:18.975Z,9.94
2019-03-03T06:38:18.969Z,9.89
2019-03-03T06:39:18.961Z,9.93
2019-03-03T06:40:18.937Z,10.01
2019-03-03T06:41:18.941Z,10.01
2019-03-03T06:42:18.926Z,10.04
2019-03-03T06:43:18.915Z,10.04
2019-03-03T06:44:18.906Z,9.99
2019-03-03T06:45:18.915Z,9.99
2019-03-03T06:46:18.876Z,10.07
2019-03-03T06:47:18.865Z,10.05
2019-03-03T06:48:18.856Z,9.96
2019-03-03T06:49:18.852Z,10.04
2019-03-03T06:50:18.845Z,10.04
2019-03-03T06:51:18.841Z,10.01
2019-03-03T06:52:18.812Z,10.07
2019-03-03T06:53:18.806Z,10.09
2019-03-03T06:54:18.797Z,10.05
2019-03-03T06:55:18.785Z,10.07
2019-03-03T06:56:18.772Z,10.07
2019-03-03T06:57:18.773Z,10.05
2019-03-03T06:58:18.762Z,10.14
2019-03-03T06:59:18.738Z,10.04
2019-03-03T07:00:18.729Z,10.23
2019-03-03T07:01:18.721Z,10.17
2019-03-03T07:02:18.702Z,10.11
2019-03-03T07:03:18.710Z,10.22
2019-03-03T07:04:18.681Z,10.23
2019-03-03T07:05:18.670Z,10.23
2019-03-03T07:06:18.667Z,10.25
2019-03-03T07:07:18.654Z,10.26
2019-03-03T07:08:18.645Z,10.29
2019-03-03T07:09:18.646Z,10.29
2019-03-03T07:10:18.616Z,10.29
2019-03-03T07:11:18.608Z,10.38
2019-03-03T07:12:18.598Z,10.32
2019-03-03T07:13:18.606Z,10.29
2019-03-03T07:14:18.576Z,10.30
2019-03-03T07:15:18.567Z,10.32
2019-03-03T07:16:18.564Z,10.41
2019-03-03T07:17:18.539Z,10.41
2019-03-03T07:18:18.577Z,10.40
2019-03-03T07:19:18.537Z,10.52
2019-03-03T07:20:18.510Z,10.47
2019-03-03T07:21:18.501Z,10.48
2019-03-03T07:22:18.482Z,10.52
2019-03-03T07:23:18.477Z,10.53
2019-03-03T07:24:18.478Z,10.59
2019-03-03T07:25:18.451Z,10.53
2019-03-03T07:26:18.449Z,10.68
2019-03-03T07:27:18.438Z,10.63
2019-03-03T07:28:18.434Z,10.64
2019-03-03T07:29:18.418Z,10.63
2019-03-03T07:30:18.408Z,10.63
2019-03-03T07:31:18.391Z,10.67
2019-03-03T07:32:18.379Z,10.74
2019-03-03T07:33:18.381Z,10.76
2019-03-03T07:34:18.368Z,10.86
2019-03-03T07:35:18.344Z,10.84
2019-03-03T07:36:18.334Z,10.79
2019-03-03T07:37:18.322Z,10.84
2019-03-03T07:38:18.318Z,10.91
2019-03-03T07:39:18.317Z,10.88
2019-03-03T07:40:18.294Z,10.94
2019-03-03T07:41:18.285Z,10.96
2019-03-03T07:42:18.285Z,10.99
2019-03-03T07:43:18.262Z,11.04
2019-03-03T07:44:18.276Z,11.06
2019-03-03T07:45:18.336Z,11.04
2019-03-03T07:46:18.223Z,11.11
2019-03-03T07:47:18.216Z,11.17
2019-03-03T07:48:18.202Z,11.14
2019-03-03T07:49:18.192Z,11.19
2019-03-03T07:50:18.204Z,11.10
2019-03-03T07:51:18.200Z,11.09
2019-03-03T07:52:18.162Z,11.07
2019-03-03T07:53:18.155Z,11.09
2019-03-03T07:54:18.134Z,11.14
2019-03-03T07:55:18.140Z,11.09
2019-03-03T07:56:18.114Z,11.19
2019-03-03T07:57:18.100Z,11.09
2019-03-03T07:58:18.100Z,11.10
2019-03-03T07:59:18.082Z,11.25
2019-03-03T08:00:18.068Z,11.15
2019-03-03T08:01:18.068Z,11.22
2019-03-03T08:02:18.057Z,11.19
2019-03-03T08:03:18.039Z,11.28
2019-03-03T08:04:18.034Z,11.24
2019-03-03T08:05:18.020Z,11.33
2019-03-03T08:06:18.012Z,11.27
2019-03-03T08:07:17.994Z,11.36
2019-03-03T08:08:17.985Z,11.36
2019-03-03T08:09:17.968Z,11.28
2019-03-03T08:10:17.965Z,11.36
2019-03-03T08:11:17.963Z,11.35
2019-03-03T08:12:17.940Z,11.36
2019-03-03T08:13:17.931Z,11.49
2019-03-03T08:14:17.914Z,11.46
2019-03-03T08:15:17.911Z,11.44
2019-03-03T08:16:17.912Z,11.49
2019-03-03T08:17:17.890Z,11.46
2019-03-03T08:18:17.869Z,11.52
2019-03-03T08:19:17.864Z,11.58
2019-03-03T08:20:17.851Z,11.54
2019-03-03T08:21:17.856Z,11.51
2019-03-03T08:22:17.837Z,11.47
2019-03-03T08:23:17.821Z,11.61
2019-03-03T08:24:17.816Z,11.64
2019-03-03T08:25:17.805Z,11.49
2019-03-03T08:26:17.782Z,11.49
2019-03-03T08:27:17.790Z,11.51
2019-03-03T08:28:17.775Z,11.60
2019-03-03T08:29:17.750Z,11.62
2019-03-03T08:30:17.748Z,11.64
2019-03-03T08:31:17.738Z,11.65
2019-03-03T08:32:17.735Z,11.62
2019-03-03T08:33:17.707Z,11.55
2019-03-03T08:34:17.703Z,11.52
2019-03-03T08:35:17.689Z,11.55
2019-03-03T08:36:17.679Z,11.57
2019-03-03T08:37:17.675Z,11.54
2019-03-03T08:38:17.663Z,11.52
2019-03-03T08:39:17.643Z,11.46
2019-03-03T08:40:17.635Z,11.51
2019-03-03T08:41:17.621Z,11.54
2019-03-03T08:42:17.619Z,11.47
2019-03-03T08:43:17.621Z,11.51
2019-03-03T08:44:17.605Z,11.44
2019-03-03T08:45:17.587Z,11.47
2019-03-03T08:46:17.566Z,11.46
2019-03-03T08:47:17.559Z,11.52
2019-03-03T08:48:17.549Z,11.47
2019-03-03T08:49:17.555Z,11.47
2019-03-03T08:50:17.522Z,11.51
2019-03-03T08:51:17.512Z,11.52
2019-03-03T08:52:17.505Z,11.46
2019-03-03T08:53:17.491Z,11.47
2019-03-03T08:54:17.506Z,11.52
2019-03-03T08:55:17.486Z,11.54
2019-03-03T08:56:17.463Z,11.46
2019-03-03T08:57:17.458Z,11.52
2019-03-03T08:58:17.448Z,11.54
2019-03-03T08:59:17.433Z,11.55
2019-03-03T09:00:18.213Z,11.57
2019-03-03T09:01:17.402Z,11.57
2019-03-03T09:02:17.398Z,11.57
2019-03-03T09:03:17.385Z,11.61
2019-03-03T09:04:17.375Z,11.52
2019-03-03T09:05:17.358Z,11.52
2019-03-03T09:06:17.371Z,11.52
2019-03-03T09:07:17.342Z,11.58
2019-03-03T09:08:17.332Z,11.46
2019-03-03T09:09:17.325Z,11.43
2019-03-03T09:10:25.175Z,11.47
2019-03-03T09:11:18.310Z,11.44
2019-03-03T09:12:17.286Z,11.54
2019-03-03T09:13:17.273Z,11.54
2019-03-03T09:14:17.269Z,11.54
2019-03-03T09:15:17.257Z,11.47
2019-03-03T09:16:17.243Z,11.57
2019-03-03T09:17:17.252Z,11.49
2019-03-03T09:18:17.220Z,11.51
2019-03-03T09:19:17.208Z,11.51
2019-03-03T09:20:17.201Z,11.52
2019-03-03T09:21:17.192Z,11.44
2019-03-03T09:22:17.191Z,11.44
2019-03-03T09:23:17.170Z,11.44
2019-03-03T09:24:17.156Z,11.55
2019-03-03T09:25:17.140Z,11.57
2019-03-03T09:26:17.138Z,11.51
2019-03-03T09:27:17.125Z,11.52
2019-03-03T09:28:17.208Z,11.61
2019-03-03T09:29:17.111Z,11.54
2019-03-03T09:30:17.087Z,11.55
2019-03-03T09:31:17.080Z,11.61
2019-03-03T09:32:17.067Z,11.46
2019-03-03T09:33:17.066Z,11.51
2019-03-03T09:34:17.052Z,11.58
2019-03-03T09:35:17.041Z,11.51
2019-03-03T09:36:17.024Z,11.64
2019-03-03T09:37:17.010Z,11.64
2019-03-03T09:38:17.022Z,11.47
2019-03-03T09:39:17.014Z,11.49
2019-03-03T09:40:16.989Z,11.52
2019-03-03T09:41:16.977Z,11.51
2019-03-03T09:42:16.956Z,11.60
2019-03-03T09:43:16.953Z,11.54
2019-03-03T09:44:16.941Z,11.52
2019-03-03T09:45:16.949Z,11.57
2019-03-03T09:46:16.927Z,11.43
2019-03-03T09:47:16.908Z,11.58
2019-03-03T09:48:16.900Z,11.47
2019-03-03T09:49:17.310Z,11.64
2019-03-03T09:50:16.946Z,11.73
2019-03-03T09:51:16.867Z,11.69
2019-03-03T09:52:16.853Z,11.75
2019-03-03T09:53:16.844Z,11.73
2019-03-03T09:54:16.826Z,11.72
2019-03-03T09:55:16.830Z,11.76
2019-03-03T09:56:16.806Z,11.65
2019-03-03T09:57:16.794Z,11.91
2019-03-03T09:58:16.793Z,11.76
2019-03-03T09:59:16.779Z,11.78
2019-03-03T10:00:16.783Z,11.82
2019-03-03T10:01:16.761Z,11.82
2019-03-03T10:02:16.738Z,11.90
2019-03-03T10:03:16.731Z,11.88
2019-03-03T10:04:16.724Z,11.90
2019-03-03T10:05:16.705Z,11.91
2019-03-03T10:06:16.717Z,11.90
2019-03-03T10:07:16.695Z,11.91
2019-03-03T10:08:16.676Z,11.86
2019-03-03T10:09:16.666Z,11.98
2019-03-03T10:10:16.660Z,11.95
2019-03-03T10:11:16.661Z,11.99
2019-03-03T10:12:16.636Z,11.98
2019-03-03T10:13:16.627Z,12.13
2019-03-03T10:14:16.609Z,12.02
2019-03-03T10:15:16.614Z,12.10
2019-03-03T10:16:16.603Z,12.10
2019-03-03T10:17:16.575Z,11.99
2019-03-03T10:18:16.576Z,12.04
2019-03-03T10:19:16.560Z,12.02
2019-03-03T10:20:16.547Z,12.01
2019-03-03T10:21:16.549Z,11.95
2019-03-03T10:22:16.522Z,11.96
2019-03-03T10:23:16.512Z,12.09
2019-03-03T10:24:16.505Z,11.98
2019-03-03T10:25:16.496Z,12.05
2019-03-03T10:26:16.491Z,12.05
2019-03-03T10:27:16.469Z,12.07
2019-03-03T10:28:16.457Z,12.10
2019-03-03T10:29:16.447Z,12.07
2019-03-03T10:30:16.441Z,12.12
2019-03-03T10:31:16.440Z,12.14
2019-03-03T10:32:16.428Z,12.13
2019-03-03T10:33:16.411Z,12.05
2019-03-03T10:34:16.396Z,12.13
2019-03-03T10:35:16.394Z,12.07
2019-03-03T10:36:16.371Z,12.09
2019-03-03T10:37:16.369Z,11.98
2019-03-03T10:38:16.358Z,12.02
2019-03-03T10:39:16.343Z,11.99
2019-03-03T10:40:16.343Z,11.96
2019-03-03T10:41:16.315Z,11.94
2019-03-03T10:42:16.311Z,11.96
2019-03-03T10:43:16.305Z,11.85
2019-03-03T10:44:16.286Z,11.78
2019-03-03T10:45:16.283Z,11.85
2019-03-03T10:46:16.273Z,11.83
2019-03-03T10:47:16.251Z,11.86
2019-03-03T10:48:16.239Z,11.85
2019-03-03T10:49:16.231Z,11.83
2019-03-03T10:50:16.226Z,11.79
2019-03-03T10:51:16.220Z,11.82
2019-03-03T10:52:16.200Z,11.88
2019-03-03T10:53:16.202Z,11.82
2019-03-03T10:54:16.188Z,11.82
2019-03-03T10:55:16.169Z,11.83
2019-03-03T10:56:16.155Z,11.94
2019-03-03T10:57:16.162Z,11.90
2019-03-03T10:58:16.127Z,11.95
2019-03-03T10:59:16.130Z,11.91
2019-03-03T11:00:16.111Z,12.02
2019-03-03T11:01:16.096Z,12.01
2019-03-03T11:02:16.092Z,12.01
2019-03-03T11:03:16.089Z,12.14
2019-03-03T11:04:16.072Z,12.13
2019-03-03T11:05:16.070Z,12.13
2019-03-03T11:06:16.044Z,12.17
2019-03-03T11:07:16.031Z,12.21
2019-03-03T11:08:16.033Z,12.24
2019-03-03T11:09:16.009Z,12.24
2019-03-03T11:10:16.002Z,12.16
2019-03-03T11:11:15.996Z,12.23
2019-03-03T11:12:15.979Z,12.28
2019-03-03T11:13:15.968Z,12.27
2019-03-03T11:14:15.970Z,12.20
2019-03-03T11:15:18.782Z,12.23
2019-03-03T11:16:15.944Z,12.31
2019-03-03T11:17:15.925Z,12.29
2019-03-03T11:18:15.922Z,12.24
2019-03-03T11:19:15.910Z,12.19
2019-03-03T11:20:15.885Z,12.29
2019-03-03T11:21:15.880Z,12.14
2019-03-03T11:22:15.868Z,12.29
2019-03-03T11:23:15.873Z,12.24
2019-03-03T11:24:15.867Z,12.24
2019-03-03T11:25:15.843Z,12.20
2019-03-03T11:26:15.821Z,12.29
2019-03-03T11:27:15.815Z,12.24
2019-03-03T11:28:23.534Z,12.31
2019-03-03T11:29:16.804Z,12.31
2019-03-03T11:30:15.780Z,12.29
2019-03-03T11:31:15.768Z,12.23
2019-03-03T11:32:15.756Z,12.24
2019-03-03T11:33:15.750Z,12.31
2019-03-03T11:34:15.752Z,12.37
2019-03-03T11:35:15.737Z,12.27
2019-03-03T11:36:15.720Z,12.29
2019-03-03T11:37:15.704Z,12.39
2019-03-03T11:38:15.695Z,12.46
2019-03-03T11:39:15.678Z,12.47
2019-03-03T11:40:15.677Z,12.50
2019-03-03T11:41:15.675Z,12.39
2019-03-03T11:42:15.659Z,12.50
2019-03-03T11:43:15.643Z,12.56
2019-03-03T11:44:15.622Z,12.50
2019-03-03T11:45:15.630Z,12.59
2019-03-03T11:46:15.610Z,12.62
2019-03-03T11:47:15.602Z,12.64
2019-03-03T11:48:15.588Z,12.64
2019-03-03T11:49:15.584Z,12.64
2019-03-03T11:50:15.561Z,12.64
2019-03-03T11:51:15.561Z,12.62
2019-03-03T11:52:16.767Z,12.64
2019-03-03T11:53:15.534Z,12.65
2019-03-03T11:54:15.519Z,12.72
2019-03-03T11:55:15.519Z,12.74
2019-03-03T11:56:15.510Z,12.70
2019-03-03T11:57:15.485Z,12.60
2019-03-03T11:58:15.473Z,12.67
2019-03-03T11:59:15.458Z,12.72
2019-03-03T12:00:15.454Z,12.70
2019-03-03T12:01:15.453Z,12.72
2019-03-03T12:02:15.430Z,12.68
2019-03-03T12:03:15.428Z,12.62
2019-03-03T12:04:15.403Z,12.57
2019-03-03T12:05:15.399Z,12.65
2019-03-03T12:06:15.385Z,12.54
2019-03-03T12:07:15.423Z,12.59
2019-03-03T12:08:15.375Z,12.56
2019-03-03T12:09:15.367Z,12.54
2019-03-03T12:10:15.342Z,12.54
2019-03-03T12:11:15.325Z,12.54
2019-03-03T12:12:15.340Z,12.53
2019-03-03T12:13:15.305Z,12.52
2019-03-03T12:14:15.298Z,12.54
2019-03-03T12:15:15.291Z,12.52
2019-03-03T12:16:15.281Z,12.52
2019-03-03T12:17:15.261Z,12.56
2019-03-03T12:18:15.253Z,12.60
2019-03-03T12:19:15.246Z,12.67
2019-03-03T12:20:15.265Z,12.64
2019-03-03T12:21:15.239Z,12.82
2019-03-03T12:22:15.208Z,12.86
2019-03-03T12:23:17.146Z,12.93
2019-03-03T12:24:15.185Z,13.00
2019-03-03T12:25:15.176Z,12.96
2019-03-03T12:26:15.168Z,13.07
2019-03-03T12:27:15.179Z,13.10
2019-03-03T12:28:15.145Z,13.14
2019-03-03T12:29:15.134Z,13.26
2019-03-03T12:30:15.121Z,13.25
2019-03-03T12:31:15.105Z,13.36
2019-03-03T12:32:15.117Z,13.46
2019-03-03T12:33:15.093Z,13.49
2019-03-03T12:34:15.090Z,13.39
2019-03-03T12:35:15.063Z,13.54
2019-03-03T12:36:15.051Z,13.51
2019-03-03T12:37:15.045Z,13.51
2019-03-03T12:38:15.036Z,13.57
2019-03-03T12:39:15.025Z,13.59
2019-03-03T12:40:15.026Z,13.60
2019-03-03T12:41:15.000Z,13.60
2019-03-03T12:42:14.987Z,13.54
2019-03-03T12:43:14.985Z,13.57
2019-03-03T12:44:14.961Z,13.60
2019-03-03T12:45:14.953Z,13.54
2019-03-03T12:46:14.944Z,13.51
2019-03-03T12:47:14.936Z,13.55
2019-03-03T12:48:14.928Z,13.54
2019-03-03T12:49:14.914Z,13.59
2019-03-03T12:50:14.940Z,13.49
2019-03-03T12:51:14.893Z,13.41
2019-03-03T12:52:14.881Z,13.33
2019-03-03T12:53:14.882Z,13.36
2019-03-03T12:54:14.860Z,13.33
2019-03-03T12:55:14.848Z,13.30
2019-03-03T12:56:14.835Z,13.25
2019-03-03T12:57:14.824Z,13.28
2019-03-03T12:58:14.825Z,13.03
2019-03-03T12:59:14.815Z,13.23
2019-03-03T13:00:14.795Z,13.20
2019-03-03T13:01:14.793Z,13.12
2019-03-03T13:02:14.767Z,13.05
2019-03-03T13:03:14.768Z,13.10
2019-03-03T13:04:14.750Z,12.96
2019-03-03T13:05:14.740Z,12.93